Strona główna
METAR-TAF:

METAR-TAF

Lotnisko :

Newark-Heath Airport

Newark, Ohio, Stany Zjednoczone

Szerokość geograficzna: 40-01-22N, Długość geograficzna: 082-27-45W, wysokość: 269 m

Aktualna obserwacja pogody

Raport powstał 13 minut temu, godzina 10:54 UTC
Cisza
Temperatura 23°C
Wilgotność 94%
Ciśnienie 1015 hPa
Widzialność: 4.8 km
Rozproszone chmury na wysokości 5500 ft
zamglenie

METAR: KVTA 211054Z AUTO 00000KT 3SM BR SCT055 23/22 A2996 RMK AO2 SLP136 T02330222

czas: 07:07 (11:07 UTC)


TAF: brakujący

Obserwacja i prognoza pogody dla ponad 4000 lotnisk (raport METAR i TAF).

Dostępne stacje oznaczono żółtymi i czerwonymi punktami na mapie.

Najedź kursorem aby zobaczyć nazwę stacji.

Kliknij aby zobaczyć obserwacje i prognozy pogody.

Aby zmienić mapę: kliknij na zielony przycisk z czarnym krzyżykiem, aby powiększyć; na zielony przycisk z myślnikiem, aby pomniejszyć; na zielone strzałki, aby przejść do map sąsiednich.


METAR-TAF: